sensor_id;sensor_type;location;lat;lon;timestamp;P1;durP1;ratioP1;P2;durP2;ratioP2
20090;SDS011;10205;49.678;6.560;2022-09-03T00:02:08;1.00;;;0.90;;
20090;SDS011;10205;49.678;6.560;2022-09-03T00:04:46;1.08;;;1.00;;
20090;SDS011;10205;49.678;6.560;2022-09-03T00:07:29;2.63;;;1.27;;
20090;SDS011;10205;49.678;6.560;2022-09-03T00:10:14;1.02;;;0.93;;
20090;SDS011;10205;49.678;6.560;2022-09-03T00:12:50;2.10;;;1.10;;
20090;SDS011;10205;49.678;6.560;2022-09-03T00:15:24;1.27;;;1.08;;
20090;SDS011;10205;49.678;6.560;2022-09-03T00:17:54;1.50;;;1.13;;
20090;SDS011;10205;49.678;6.560;2022-09-03T00:20:30;0.98;;;0.85;;
20090;SDS011;10205;49.678;6.560;2022-09-03T00:23:02;1.00;;;0.95;;
20090;SDS011;10205;49.678;6.560;2022-09-03T00:25:38;1.92;;;1.20;;
20090;SDS011;10205;49.678;6.560;2022-09-03T00:28:12;1.23;;;1.13;;
20090;SDS011;10205;49.678;6.560;2022-09-03T00:30:44;1.15;;;0.98;;
20090;SDS011;10205;49.678;6.560;2022-09-03T00:33:22;2.35;;;1.17;;
20090;SDS011;10205;49.678;6.560;2022-09-03T00:36:01;1.17;;;1.08;;
20090;SDS011;10205;49.678;6.560;2022-09-03T00:38:37;1.27;;;1.05;;
20090;SDS011;10205;49.678;6.560;2022-09-03T00:41:05;1.10;;;0.82;;
20090;SDS011;10205;49.678;6.560;2022-09-03T00:43:55;1.25;;;1.08;;
20090;SDS011;10205;49.678;6.560;2022-09-03T00:46:48;1.20;;;1.00;;
20090;SDS011;10205;49.678;6.560;2022-09-03T00:49:29;1.83;;;1.02;;
20090;SDS011;10205;49.678;6.560;2022-09-03T00:52:12;1.48;;;1.00;;
20090;SDS011;10205;49.678;6.560;2022-09-03T00:54:57;1.10;;;1.00;;
20090;SDS011;10205;49.678;6.560;2022-09-03T00:57:38;1.85;;;1.10;;
20090;SDS011;10205;49.678;6.560;2022-09-03T01:00:21;0.90;;;0.80;;
20090;SDS011;10205;49.678;6.560;2022-09-03T01:02:52;1.60;;;1.10;;
20090;SDS011;10205;49.678;6.560;2022-09-03T01:05:53;0.98;;;0.82;;
20090;SDS011;10205;49.678;6.560;2022-09-03T01:08:40;1.20;;;1.10;;
20090;SDS011;10205;49.678;6.560;2022-09-03T01:11:38;1.83;;;1.15;;
20090;SDS011;10205;49.678;6.560;2022-09-03T01:14:24;1.08;;;0.90;;
20090;SDS011;10205;49.678;6.560;2022-09-03T01:17:14;1.40;;;0.90;;
20090;SDS011;10205;49.678;6.560;2022-09-03T01:19:59;1.50;;;1.08;;
20090;SDS011;10205;49.678;6.560;2022-09-03T01:26:01;1.10;;;1.00;;
20090;SDS011;10205;49.678;6.560;2022-09-03T01:28:54;1.08;;;0.98;;
20090;SDS011;10205;49.678;6.560;2022-09-03T01:31:33;0.80;;;0.80;;
20090;SDS011;10205;49.678;6.560;2022-09-03T01:34:16;1.30;;;0.85;;
20090;SDS011;10205;49.678;6.560;2022-09-03T01:37:00;1.10;;;0.80;;
20090;SDS011;10205;49.678;6.560;2022-09-03T01:39:42;1.10;;;1.00;;
20090;SDS011;10205;49.678;6.560;2022-09-03T01:42:29;1.30;;;1.20;;
20090;SDS011;10205;49.678;6.560;2022-09-03T01:45:31;1.02;;;0.93;;
20090;SDS011;10205;49.678;6.560;2022-09-03T01:48:11;1.00;;;0.90;;
20090;SDS011;10205;49.678;6.560;2022-09-03T01:50:57;1.10;;;1.00;;
20090;SDS011;10205;49.678;6.560;2022-09-03T01:53:39;0.80;;;0.80;;
20090;SDS011;10205;49.678;6.560;2022-09-03T01:56:55;1.17;;;1.00;;
20090;SDS011;10205;49.678;6.560;2022-09-03T01:59:54;1.48;;;1.00;;
20090;SDS011;10205;49.678;6.560;2022-09-03T02:02:30;1.75;;;1.10;;
20090;SDS011;10205;49.678;6.560;2022-09-03T02:05:00;3.20;;;1.10;;
20090;SDS011;10205;49.678;6.560;2022-09-03T02:07:34;1.23;;;1.10;;
20090;SDS011;10205;49.678;6.560;2022-09-03T02:10:05;1.50;;;1.13;;
20090;SDS011;10205;49.678;6.560;2022-09-03T02:12:36;2.97;;;1.30;;
20090;SDS011;10205;49.678;6.560;2022-09-03T02:15:08;1.20;;;1.00;;
20090;SDS011;10205;49.678;6.560;2022-09-03T02:17:41;1.85;;;1.10;;
20090;SDS011;10205;49.678;6.560;2022-09-03T02:20:15;1.33;;;1.00;;
20090;SDS011;10205;49.678;6.560;2022-09-03T02:22:47;1.25;;;1.10;;
20090;SDS011;10205;49.678;6.560;2022-09-03T02:25:18;2.00;;;0.90;;
20090;SDS011;10205;49.678;6.560;2022-09-03T02:27:49;1.10;;;1.00;;
20090;SDS011;10205;49.678;6.560;2022-09-03T02:30:18;1.50;;;1.20;;
20090;SDS011;10205;49.678;6.560;2022-09-03T02:32:46;2.78;;;1.10;;
20090;SDS011;10205;49.678;6.560;2022-09-03T02:35:14;1.13;;;1.02;;
20090;SDS011;10205;49.678;6.560;2022-09-03T02:37:41;1.60;;;0.95;;
20090;SDS011;10205;49.678;6.560;2022-09-03T02:40:09;1.33;;;1.23;;
20090;SDS011;10205;49.678;6.560;2022-09-03T02:42:36;2.38;;;1.38;;
20090;SDS011;10205;49.678;6.560;2022-09-03T02:45:18;1.83;;;1.15;;
20090;SDS011;10205;49.678;6.560;2022-09-03T02:47:55;1.60;;;1.10;;
20090;SDS011;10205;49.678;6.560;2022-09-03T02:50:25;3.08;;;1.20;;
20090;SDS011;10205;49.678;6.560;2022-09-03T02:52:52;1.45;;;1.25;;
20090;SDS011;10205;49.678;6.560;2022-09-03T02:55:19;1.08;;;0.98;;
20090;SDS011;10205;49.678;6.560;2022-09-03T02:57:47;2.85;;;1.02;;
20090;SDS011;10205;49.678;6.560;2022-09-03T03:00:14;1.20;;;1.10;;
20090;SDS011;10205;49.678;6.560;2022-09-03T03:02:43;1.63;;;0.90;;
20090;SDS011;10205;49.678;6.560;2022-09-03T03:05:13;1.25;;;1.15;;
20090;SDS011;10205;49.678;6.560;2022-09-03T03:07:55;1.90;;;1.42;;
20090;SDS011;10205;49.678;6.560;2022-09-03T03:10:22;1.42;;;1.10;;
20090;SDS011;10205;49.678;6.560;2022-09-03T03:12:49;2.67;;;1.15;;
20090;SDS011;10205;49.678;6.560;2022-09-03T03:15:16;1.45;;;1.25;;
20090;SDS011;10205;49.678;6.560;2022-09-03T03:17:44;1.98;;;1.33;;
20090;SDS011;10205;49.678;6.560;2022-09-03T03:20:12;1.10;;;0.85;;
20090;SDS011;10205;49.678;6.560;2022-09-03T03:22:40;1.17;;;1.08;;
20090;SDS011;10205;49.678;6.560;2022-09-03T03:25:07;1.60;;;1.10;;
20090;SDS011;10205;49.678;6.560;2022-09-03T03:27:35;1.48;;;1.30;;
20090;SDS011;10205;49.678;6.560;2022-09-03T03:30:06;2.10;;;1.30;;
20090;SDS011;10205;49.678;6.560;2022-09-03T03:32:38;1.63;;;1.40;;
20090;SDS011;10205;49.678;6.560;2022-09-03T03:35:05;1.17;;;1.00;;
20090;SDS011;10205;49.678;6.560;2022-09-03T03:37:34;2.22;;;1.40;;
20090;SDS011;10205;49.678;6.560;2022-09-03T03:40:01;1.10;;;1.00;;
20090;SDS011;10205;49.678;6.560;2022-09-03T03:42:31;1.25;;;1.08;;
20090;SDS011;10205;49.678;6.560;2022-09-03T03:44:59;1.38;;;1.15;;
20090;SDS011;10205;49.678;6.560;2022-09-03T03:47:28;1.13;;;1.02;;
20090;SDS011;10205;49.678;6.560;2022-09-03T03:49:56;1.17;;;1.08;;
20090;SDS011;10205;49.678;6.560;2022-09-03T03:52:24;1.52;;;1.02;;
20090;SDS011;10205;49.678;6.560;2022-09-03T03:54:54;1.85;;;1.25;;
20090;SDS011;10205;49.678;6.560;2022-09-03T03:57:21;1.73;;;1.27;;
20090;SDS011;10205;49.678;6.560;2022-09-03T03:59:49;1.27;;;1.10;;
20090;SDS011;10205;49.678;6.560;2022-09-03T04:02:17;1.55;;;1.20;;
20090;SDS011;10205;49.678;6.560;2022-09-03T04:04:44;2.33;;;1.17;;
20090;SDS011;10205;49.678;6.560;2022-09-03T04:07:11;3.20;;;1.20;;
20090;SDS011;10205;49.678;6.560;2022-09-03T04:09:38;1.00;;;0.90;;
20090;SDS011;10205;49.678;6.560;2022-09-03T04:12:07;1.95;;;1.30;;
20090;SDS011;10205;49.678;6.560;2022-09-03T04:14:34;1.42;;;1.30;;
20090;SDS011;10205;49.678;6.560;2022-09-03T04:17:01;2.17;;;1.17;;
20090;SDS011;10205;49.678;6.560;2022-09-03T04:19:29;1.20;;;1.00;;
20090;SDS011;10205;49.678;6.560;2022-09-03T04:21:56;2.13;;;1.08;;
20090;SDS011;10205;49.678;6.560;2022-09-03T04:24:23;1.50;;;1.00;;
20090;SDS011;10205;49.678;6.560;2022-09-03T04:26:52;2.08;;;1.10;;
20090;SDS011;10205;49.678;6.560;2022-09-03T04:29:21;1.35;;;1.10;;
20090;SDS011;10205;49.678;6.560;2022-09-03T04:31:48;1.10;;;0.98;;
20090;SDS011;10205;49.678;6.560;2022-09-03T04:34:33;1.30;;;1.10;;
20090;SDS011;10205;49.678;6.560;2022-09-03T04:37:00;2.13;;;1.33;;
20090;SDS011;10205;49.678;6.560;2022-09-03T04:39:27;2.63;;;1.35;;
20090;SDS011;10205;49.678;6.560;2022-09-03T04:41:54;1.25;;;1.15;;
20090;SDS011;10205;49.678;6.560;2022-09-03T04:44:23;1.60;;;1.30;;
20090;SDS011;10205;49.678;6.560;2022-09-03T04:46:50;0.80;;;0.80;;
20090;SDS011;10205;49.678;6.560;2022-09-03T04:49:17;1.75;;;1.40;;
20090;SDS011;10205;49.678;6.560;2022-09-03T04:51:44;1.33;;;1.20;;
20090;SDS011;10205;49.678;6.560;2022-09-03T04:54:11;1.35;;;1.20;;
20090;SDS011;10205;49.678;6.560;2022-09-03T04:56:38;2.85;;;1.38;;
20090;SDS011;10205;49.678;6.560;2022-09-03T04:59:06;1.65;;;1.15;;
20090;SDS011;10205;49.678;6.560;2022-09-03T05:01:36;1.20;;;1.10;;
20090;SDS011;10205;49.678;6.560;2022-09-03T05:04:06;2.05;;;1.10;;
20090;SDS011;10205;49.678;6.560;2022-09-03T05:06:34;1.25;;;1.05;;
20090;SDS011;10205;49.678;6.560;2022-09-03T05:09:02;1.88;;;1.30;;
20090;SDS011;10205;49.678;6.560;2022-09-03T05:11:31;1.23;;;1.13;;
20090;SDS011;10205;49.678;6.560;2022-09-03T05:13:58;2.10;;;1.25;;
20090;SDS011;10205;49.678;6.560;2022-09-03T05:16:26;1.40;;;1.30;;
20090;SDS011;10205;49.678;6.560;2022-09-03T05:18:57;1.38;;;1.27;;
20090;SDS011;10205;49.678;6.560;2022-09-03T05:21:25;1.50;;;1.20;;
20090;SDS011;10205;49.678;6.560;2022-09-03T05:23:54;2.50;;;1.20;;
20090;SDS011;10205;49.678;6.560;2022-09-03T05:26:22;1.20;;;1.10;;
20090;SDS011;10205;49.678;6.560;2022-09-03T05:28:53;2.00;;;1.35;;
20090;SDS011;10205;49.678;6.560;2022-09-03T05:31:22;2.53;;;1.15;;
20090;SDS011;10205;49.678;6.560;2022-09-03T05:33:52;1.50;;;1.25;;
20090;SDS011;10205;49.678;6.560;2022-09-03T05:36:24;1.20;;;1.10;;
20090;SDS011;10205;49.678;6.560;2022-09-03T05:38:53;1.48;;;1.20;;
20090;SDS011;10205;49.678;6.560;2022-09-03T05:41:22;1.63;;;1.27;;
20090;SDS011;10205;49.678;6.560;2022-09-03T05:43:51;1.40;;;1.30;;
20090;SDS011;10205;49.678;6.560;2022-09-03T05:46:21;1.63;;;1.25;;
20090;SDS011;10205;49.678;6.560;2022-09-03T05:48:52;1.65;;;1.10;;
20090;SDS011;10205;49.678;6.560;2022-09-03T05:51:19;1.92;;;1.10;;
20090;SDS011;10205;49.678;6.560;2022-09-03T05:53:47;1.35;;;1.25;;
20090;SDS011;10205;49.678;6.560;2022-09-03T05:56:15;1.27;;;1.17;;
20090;SDS011;10205;49.678;6.560;2022-09-03T05:58:45;1.95;;;1.30;;
20090;SDS011;10205;49.678;6.560;2022-09-03T06:01:14;3.95;;;1.50;;
20090;SDS011;10205;49.678;6.560;2022-09-03T06:03:44;2.08;;;1.42;;
20090;SDS011;10205;49.678;6.560;2022-09-03T06:06:19;2.08;;;1.60;;
20090;SDS011;10205;49.678;6.560;2022-09-03T06:08:50;1.10;;;1.00;;
20090;SDS011;10205;49.678;6.560;2022-09-03T06:11:19;1.33;;;1.23;;
20090;SDS011;10205;49.678;6.560;2022-09-03T06:13:52;1.30;;;1.20;;
20090;SDS011;10205;49.678;6.560;2022-09-03T06:16:19;1.20;;;1.10;;
20090;SDS011;10205;49.678;6.560;2022-09-03T06:18:46;3.65;;;1.67;;
20090;SDS011;10205;49.678;6.560;2022-09-03T06:21:14;1.30;;;1.20;;
20090;SDS011;10205;49.678;6.560;2022-09-03T06:23:41;1.77;;;1.10;;
20090;SDS011;10205;49.678;6.560;2022-09-03T06:26:10;2.17;;;1.40;;
20090;SDS011;10205;49.678;6.560;2022-09-03T06:28:40;1.40;;;1.30;;
20090;SDS011;10205;49.678;6.560;2022-09-03T06:31:09;1.30;;;1.20;;
20090;SDS011;10205;49.678;6.560;2022-09-03T06:33:39;1.13;;;1.00;;
20090;SDS011;10205;49.678;6.560;2022-09-03T06:36:08;1.00;;;0.90;;
20090;SDS011;10205;49.678;6.560;2022-09-03T06:38:38;2.25;;;1.23;;
20090;SDS011;10205;49.678;6.560;2022-09-03T06:41:07;1.58;;;1.40;;
20090;SDS011;10205;49.678;6.560;2022-09-03T06:43:39;1.85;;;1.42;;
20090;SDS011;10205;49.678;6.560;2022-09-03T06:46:08;1.90;;;1.40;;
20090;SDS011;10205;49.678;6.560;2022-09-03T06:48:41;1.70;;;1.60;;
20090;SDS011;10205;49.678;6.560;2022-09-03T06:51:09;1.83;;;1.15;;
20090;SDS011;10205;49.678;6.560;2022-09-03T06:53:38;1.63;;;1.20;;
20090;SDS011;10205;49.678;6.560;2022-09-03T06:56:08;6.03;;;1.50;;
20090;SDS011;10205;49.678;6.560;2022-09-03T06:58:40;1.63;;;1.40;;
20090;SDS011;10205;49.678;6.560;2022-09-03T07:01:10;1.95;;;1.45;;
20090;SDS011;10205;49.678;6.560;2022-09-03T07:03:41;2.17;;;1.42;;
20090;SDS011;10205;49.678;6.560;2022-09-03T07:06:11;2.65;;;1.30;;
20090;SDS011;10205;49.678;6.560;2022-09-03T07:08:41;1.58;;;1.42;;
20090;SDS011;10205;49.678;6.560;2022-09-03T07:11:09;1.50;;;1.40;;
20090;SDS011;10205;49.678;6.560;2022-09-03T07:13:41;2.13;;;1.50;;
20090;SDS011;10205;49.678;6.560;2022-09-03T07:16:14;3.15;;;1.30;;
20090;SDS011;10205;49.678;6.560;2022-09-03T07:18:43;2.20;;;1.50;;
20090;SDS011;10205;49.678;6.560;2022-09-03T07:21:12;1.77;;;1.23;;
20090;SDS011;10205;49.678;6.560;2022-09-03T07:23:41;2.28;;;1.40;;
20090;SDS011;10205;49.678;6.560;2022-09-03T07:26:10;1.45;;;1.35;;
20090;SDS011;10205;49.678;6.560;2022-09-03T07:28:43;1.30;;;1.20;;
20090;SDS011;10205;49.678;6.560;2022-09-03T07:31:14;1.95;;;1.10;;
20090;SDS011;10205;49.678;6.560;2022-09-03T07:33:44;3.55;;;1.42;;
20090;SDS011;10205;49.678;6.560;2022-09-03T07:36:12;1.63;;;1.10;;
20090;SDS011;10205;49.678;6.560;2022-09-03T07:38:42;1.67;;;1.50;;
20090;SDS011;10205;49.678;6.560;2022-09-03T07:41:11;1.83;;;1.20;;
20090;SDS011;10205;49.678;6.560;2022-09-03T07:43:43;2.25;;;1.50;;
20090;SDS011;10205;49.678;6.560;2022-09-03T07:46:12;1.50;;;1.40;;
20090;SDS011;10205;49.678;6.560;2022-09-03T07:48:45;1.60;;;1.50;;
20090;SDS011;10205;49.678;6.560;2022-09-03T07:51:14;3.13;;;1.88;;
20090;SDS011;10205;49.678;6.560;2022-09-03T07:53:42;2.22;;;2.03;;
20090;SDS011;10205;49.678;6.560;2022-09-03T07:56:10;2.20;;;1.80;;
20090;SDS011;10205;49.678;6.560;2022-09-03T07:58:39;1.60;;;1.50;;
20090;SDS011;10205;49.678;6.560;2022-09-03T08:01:07;8.60;;;1.75;;
20090;SDS011;10205;49.678;6.560;2022-09-03T08:03:37;2.28;;;1.45;;
20090;SDS011;10205;49.678;6.560;2022-09-03T08:06:09;1.70;;;1.50;;
20090;SDS011;10205;49.678;6.560;2022-09-03T08:08:37;1.77;;;1.67;;
20090;SDS011;10205;49.678;6.560;2022-09-03T08:11:05;2.10;;;1.52;;
20090;SDS011;10205;49.678;6.560;2022-09-03T08:13:34;2.05;;;1.55;;
20090;SDS011;10205;49.678;6.560;2022-09-03T08:16:06;3.60;;;1.60;;
20090;SDS011;10205;49.678;6.560;2022-09-03T08:18:34;2.08;;;1.88;;
20090;SDS011;10205;49.678;6.560;2022-09-03T08:21:04;3.70;;;2.00;;
20090;SDS011;10205;49.678;6.560;2022-09-03T08:23:35;1.92;;;1.73;;
20090;SDS011;10205;49.678;6.560;2022-09-03T08:26:03;3.15;;;2.30;;
20090;SDS011;10205;49.678;6.560;2022-09-03T08:28:31;3.25;;;1.73;;
20090;SDS011;10205;49.678;6.560;2022-09-03T08:31:03;1.90;;;1.70;;
20090;SDS011;10205;49.678;6.560;2022-09-03T08:33:35;2.45;;;1.65;;
20090;SDS011;10205;49.678;6.560;2022-09-03T08:36:03;4.05;;;1.88;;
20090;SDS011;10205;49.678;6.560;2022-09-03T08:38:33;3.80;;;2.13;;
20090;SDS011;10205;49.678;6.560;2022-09-03T08:41:05;2.00;;;1.90;;
20090;SDS011;10205;49.678;6.560;2022-09-03T08:43:58;2.53;;;1.90;;
20090;SDS011;10205;49.678;6.560;2022-09-03T08:46:45;2.22;;;1.70;;
20090;SDS011;10205;49.678;6.560;2022-09-03T08:49:20;1.95;;;1.75;;
20090;SDS011;10205;49.678;6.560;2022-09-03T08:51:53;1.90;;;1.80;;
20090;SDS011;10205;49.678;6.560;2022-09-03T08:54:26;3.00;;;2.22;;
20090;SDS011;10205;49.678;6.560;2022-09-03T08:56:57;2.22;;;1.98;;
20090;SDS011;10205;49.678;6.560;2022-09-03T08:59:28;4.50;;;2.20;;
20090;SDS011;10205;49.678;6.560;2022-09-03T09:02:00;3.17;;;2.20;;
20090;SDS011;10205;49.678;6.560;2022-09-03T09:04:46;3.05;;;2.15;;
20090;SDS011;10205;49.678;6.560;2022-09-03T09:07:26;2.25;;;2.00;;
20090;SDS011;10205;49.678;6.560;2022-09-03T09:10:02;2.50;;;2.30;;
20090;SDS011;10205;49.678;6.560;2022-09-03T09:12:39;2.67;;;2.17;;
20090;SDS011;10205;49.678;6.560;2022-09-03T09:15:34;4.32;;;2.85;;
20090;SDS011;10205;49.678;6.560;2022-09-03T09:18:17;2.05;;;1.85;;
20090;SDS011;10205;49.678;6.560;2022-09-03T09:20:56;2.78;;;2.50;;
20090;SDS011;10205;49.678;6.560;2022-09-03T09:23:34;2.42;;;2.05;;
20090;SDS011;10205;49.678;6.560;2022-09-03T09:26:10;2.80;;;2.50;;
20090;SDS011;10205;49.678;6.560;2022-09-03T09:28:42;2.50;;;2.30;;
20090;SDS011;10205;49.678;6.560;2022-09-03T09:31:13;3.00;;;2.05;;
20090;SDS011;10205;49.678;6.560;2022-09-03T09:33:44;4.53;;;2.50;;
20090;SDS011;10205;49.678;6.560;2022-09-03T09:36:12;2.70;;;2.40;;
20090;SDS011;10205;49.678;6.560;2022-09-03T09:38:43;1.95;;;1.85;;
20090;SDS011;10205;49.678;6.560;2022-09-03T09:41:13;3.60;;;2.50;;
20090;SDS011;10205;49.678;6.560;2022-09-03T09:43:44;2.08;;;1.88;;
20090;SDS011;10205;49.678;6.560;2022-09-03T09:46:14;4.13;;;2.10;;
20090;SDS011;10205;49.678;6.560;2022-09-03T09:48:50;3.38;;;2.05;;
20090;SDS011;10205;49.678;6.560;2022-09-03T09:51:21;2.50;;;2.30;;
20090;SDS011;10205;49.678;6.560;2022-09-03T09:53:59;4.47;;;2.10;;
20090;SDS011;10205;49.678;6.560;2022-09-03T09:56:28;3.95;;;2.03;;
20090;SDS011;10205;49.678;6.560;2022-09-03T09:59:02;2.20;;;2.00;;
20090;SDS011;10205;49.678;6.560;2022-09-03T10:01:32;2.95;;;2.30;;
20090;SDS011;10205;49.678;6.560;2022-09-03T10:04:08;4.05;;;2.20;;
20090;SDS011;10205;49.678;6.560;2022-09-03T10:06:39;2.40;;;2.20;;
20090;SDS011;10205;49.678;6.560;2022-09-03T10:09:22;2.35;;;2.15;;
20090;SDS011;10205;49.678;6.560;2022-09-03T10:11:56;3.10;;;2.22;;
20090;SDS011;10205;49.678;6.560;2022-09-03T10:14:38;2.95;;;2.38;;
20090;SDS011;10205;49.678;6.560;2022-09-03T10:17:13;3.30;;;2.30;;
20090;SDS011;10205;49.678;6.560;2022-09-03T10:19:53;2.30;;;2.10;;
20090;SDS011;10205;49.678;6.560;2022-09-03T10:22:48;2.38;;;2.17;;
20090;SDS011;10205;49.678;6.560;2022-09-03T10:25:22;2.42;;;2.22;;
20090;SDS011;10205;49.678;6.560;2022-09-03T10:28:03;2.45;;;2.22;;
20090;SDS011;10205;49.678;6.560;2022-09-03T10:30:33;2.42;;;2.22;;
20090;SDS011;10205;49.678;6.560;2022-09-03T10:33:15;2.47;;;2.25;;
20090;SDS011;10205;49.678;6.560;2022-09-03T10:35:55;2.92;;;1.77;;
20090;SDS011;10205;49.678;6.560;2022-09-03T10:38:37;4.05;;;1.90;;
20090;SDS011;10205;49.678;6.560;2022-09-03T10:41:12;2.53;;;2.33;;
20090;SDS011;10205;49.678;6.560;2022-09-03T10:44:10;3.58;;;2.38;;
20090;SDS011;10205;49.678;6.560;2022-09-03T10:47:02;3.55;;;2.15;;
20090;SDS011;10205;49.678;6.560;2022-09-03T10:49:53;3.17;;;2.30;;
20090;SDS011;10205;49.678;6.560;2022-09-03T10:52:34;2.53;;;2.33;;
20090;SDS011;10205;49.678;6.560;2022-09-03T10:55:34;2.80;;;2.30;;
20090;SDS011;10205;49.678;6.560;2022-09-03T10:58:20;2.10;;;1.92;;
20090;SDS011;10205;49.678;6.560;2022-09-03T11:01:09;2.28;;;2.03;;
20090;SDS011;10205;49.678;6.560;2022-09-03T11:03:47;3.60;;;2.53;;
20090;SDS011;10205;49.678;6.560;2022-09-03T11:06:26;4.53;;;2.03;;
20090;SDS011;10205;49.678;6.560;2022-09-03T11:09:04;2.65;;;2.28;;
20090;SDS011;10205;49.678;6.560;2022-09-03T11:11:44;2.97;;;2.30;;
20090;SDS011;10205;49.678;6.560;2022-09-03T11:14:17;3.00;;;1.92;;
20090;SDS011;10205;49.678;6.560;2022-09-03T11:16:58;2.92;;;2.15;;
20090;SDS011;10205;49.678;6.560;2022-09-03T11:19:36;4.00;;;2.50;;
20090;SDS011;10205;49.678;6.560;2022-09-03T11:22:14;3.55;;;2.40;;
20090;SDS011;10205;49.678;6.560;2022-09-03T11:24:50;2.30;;;2.08;;
20090;SDS011;10205;49.678;6.560;2022-09-03T11:27:27;2.40;;;2.20;;
20090;SDS011;10205;49.678;6.560;2022-09-03T11:30:11;2.22;;;1.92;;
20090;SDS011;10205;49.678;6.560;2022-09-03T11:32:48;2.83;;;2.25;;
20090;SDS011;10205;49.678;6.560;2022-09-03T11:35:24;8.15;;;2.53;;
20090;SDS011;10205;49.678;6.560;2022-09-03T11:37:57;2.30;;;2.10;;
20090;SDS011;10205;49.678;6.560;2022-09-03T11:40:31;2.38;;;2.13;;
20090;SDS011;10205;49.678;6.560;2022-09-03T11:43:04;4.80;;;2.10;;
20090;SDS011;10205;49.678;6.560;2022-09-03T11:45:37;2.22;;;2.03;;
20090;SDS011;10205;49.678;6.560;2022-09-03T11:48:17;2.65;;;2.45;;
20090;SDS011;10205;49.678;6.560;2022-09-03T11:51:02;2.40;;;2.20;;
20090;SDS011;10205;49.678;6.560;2022-09-03T11:53:34;2.00;;;1.90;;
20090;SDS011;10205;49.678;6.560;2022-09-03T11:56:17;2.60;;;2.40;;
20090;SDS011;10205;49.678;6.560;2022-09-03T11:58:45;5.90;;;2.97;;
20090;SDS011;10205;49.678;6.560;2022-09-03T12:01:24;6.55;;;2.50;;
20090;SDS011;10205;49.678;6.560;2022-09-03T12:03:55;2.65;;;2.05;;
20090;SDS011;10205;49.678;6.560;2022-09-03T12:06:32;4.47;;;2.38;;
20090;SDS011;10205;49.678;6.560;2022-09-03T12:09:38;2.97;;;2.25;;
20090;SDS011;10205;49.678;6.560;2022-09-03T12:12:38;5.47;;;2.50;;
20090;SDS011;10205;49.678;6.560;2022-09-03T12:15:21;3.45;;;2.30;;
20090;SDS011;10205;49.678;6.560;2022-09-03T12:18:14;2.63;;;1.80;;
20090;SDS011;10205;49.678;6.560;2022-09-03T12:20:59;2.90;;;2.25;;
20090;SDS011;10205;49.678;6.560;2022-09-03T12:23:30;2.55;;;1.80;;
20090;SDS011;10205;49.678;6.560;2022-09-03T12:26:06;1.35;;;1.17;;
20090;SDS011;10205;49.678;6.560;2022-09-03T12:28:41;1.98;;;1.88;;
20090;SDS011;10205;49.678;6.560;2022-09-03T12:31:13;2.05;;;1.35;;
20090;SDS011;10205;49.678;6.560;2022-09-03T12:33:49;1.80;;;1.20;;
20090;SDS011;10205;49.678;6.560;2022-09-03T12:36:19;2.22;;;2.03;;
20090;SDS011;10205;49.678;6.560;2022-09-03T12:38:48;3.10;;;1.75;;
20090;SDS011;10205;49.678;6.560;2022-09-03T12:41:19;1.80;;;1.60;;
20090;SDS011;10205;49.678;6.560;2022-09-03T12:43:52;2.92;;;2.17;;
20090;SDS011;10205;49.678;6.560;2022-09-03T12:46:23;1.95;;;1.50;;
20090;SDS011;10205;49.678;6.560;2022-09-03T12:48:55;3.60;;;1.77;;
20090;SDS011;10205;49.678;6.560;2022-09-03T12:51:30;2.10;;;1.90;;
20090;SDS011;10205;49.678;6.560;2022-09-03T12:54:01;2.50;;;1.73;;
20090;SDS011;10205;49.678;6.560;2022-09-03T12:56:33;2.42;;;1.80;;
20090;SDS011;10205;49.678;6.560;2022-09-03T12:59:06;2.42;;;1.63;;
20090;SDS011;10205;49.678;6.560;2022-09-03T13:01:41;2.35;;;1.70;;
20090;SDS011;10205;49.678;6.560;2022-09-03T13:04:15;1.77;;;1.67;;
20090;SDS011;10205;49.678;6.560;2022-09-03T13:06:51;1.67;;;1.42;;
20090;SDS011;10205;49.678;6.560;2022-09-03T13:09:28;2.47;;;1.80;;
20090;SDS011;10205;49.678;6.560;2022-09-03T13:12:00;5.30;;;2.03;;
20090;SDS011;10205;49.678;6.560;2022-09-03T13:14:39;2.33;;;1.92;;
20090;SDS011;10205;49.678;6.560;2022-09-03T13:17:15;2.17;;;1.52;;
20090;SDS011;10205;49.678;6.560;2022-09-03T13:22:59;2.38;;;1.92;;
20090;SDS011;10205;49.678;6.560;2022-09-03T13:25:43;1.95;;;1.77;;
20090;SDS011;10205;49.678;6.560;2022-09-03T13:28:28;2.20;;;2.00;;
20090;SDS011;10205;49.678;6.560;2022-09-03T13:31:21;2.05;;;1.85;;
20090;SDS011;10205;49.678;6.560;2022-09-03T13:33:58;2.58;;;2.00;;
20090;SDS011;10205;49.678;6.560;2022-09-03T13:36:35;2.90;;;1.80;;
20090;SDS011;10205;49.678;6.560;2022-09-03T13:39:15;2.67;;;2.00;;
20090;SDS011;10205;49.678;6.560;2022-09-03T13:41:52;2.33;;;1.83;;
20090;SDS011;10205;49.678;6.560;2022-09-03T13:44:33;3.15;;;2.28;;
20090;SDS011;10205;49.678;6.560;2022-09-03T13:47:11;3.22;;;1.73;;
20090;SDS011;10205;49.678;6.560;2022-09-03T13:49:53;2.10;;;1.92;;
20090;SDS011;10205;49.678;6.560;2022-09-03T13:52:47;1.90;;;1.60;;
20090;SDS011;10205;49.678;6.560;2022-09-03T13:55:24;2.00;;;1.80;;
20090;SDS011;10205;49.678;6.560;2022-09-03T13:58:00;3.45;;;2.30;;
20090;SDS011;10205;49.678;6.560;2022-09-03T14:00:34;2.35;;;1.90;;
20090;SDS011;10205;49.678;6.560;2022-09-03T14:03:11;2.33;;;2.13;;
20090;SDS011;10205;49.678;6.560;2022-09-03T14:05:53;2.05;;;1.88;;
20090;SDS011;10205;49.678;6.560;2022-09-03T14:08:31;2.20;;;2.00;;
20090;SDS011;10205;49.678;6.560;2022-09-03T14:11:19;3.67;;;2.15;;
20090;SDS011;10205;49.678;6.560;2022-09-03T14:13:59;1.98;;;1.88;;
20090;SDS011;10205;49.678;6.560;2022-09-03T14:16:41;4.65;;;2.70;;
20090;SDS011;10205;49.678;6.560;2022-09-03T14:19:21;2.38;;;2.10;;
20090;SDS011;10205;49.678;6.560;2022-09-03T14:22:04;2.88;;;2.08;;
20090;SDS011;10205;49.678;6.560;2022-09-03T14:24:42;2.35;;;2.15;;
20090;SDS011;10205;49.678;6.560;2022-09-03T14:27:21;3.60;;;2.47;;
20090;SDS011;10205;49.678;6.560;2022-09-03T14:29:52;3.22;;;2.30;;
20090;SDS011;10205;49.678;6.560;2022-09-03T14:32:29;2.25;;;2.10;;
20090;SDS011;10205;49.678;6.560;2022-09-03T14:35:21;3.22;;;2.25;;
20090;SDS011;10205;49.678;6.560;2022-09-03T14:41:21;3.17;;;2.20;;
20090;SDS011;10205;49.678;6.560;2022-09-03T14:44:20;2.28;;;2.08;;
20090;SDS011;10205;49.678;6.560;2022-09-03T14:47:22;2.13;;;1.92;;
20090;SDS011;10205;49.678;6.560;2022-09-03T14:50:10;2.92;;;2.00;;
20090;SDS011;10205;49.678;6.560;2022-09-03T14:59:17;1.80;;;1.70;;
20090;SDS011;10205;49.678;6.560;2022-09-03T15:02:25;2.10;;;1.90;;
20090;SDS011;10205;49.678;6.560;2022-09-03T15:05:19;2.03;;;1.50;;
20090;SDS011;10205;49.678;6.560;2022-09-03T15:08:15;1.90;;;1.30;;
20090;SDS011;10205;49.678;6.560;2022-09-03T15:11:09;2.33;;;1.50;;
20090;SDS011;10205;49.678;6.560;2022-09-03T15:13:44;1.83;;;1.67;;
20090;SDS011;10205;49.678;6.560;2022-09-03T15:16:20;1.80;;;1.52;;
20090;SDS011;10205;49.678;6.560;2022-09-03T15:19:15;2.85;;;1.25;;
20090;SDS011;10205;49.678;6.560;2022-09-03T15:22:10;2.22;;;1.20;;
20090;SDS011;10205;49.678;6.560;2022-09-03T15:24:52;1.45;;;1.35;;
20090;SDS011;10205;49.678;6.560;2022-09-03T15:30:32;1.30;;;1.20;;
20090;SDS011;10205;49.678;6.560;2022-09-03T15:33:11;1.20;;;1.10;;
20090;SDS011;10205;49.678;6.560;2022-09-03T15:35:59;1.40;;;1.30;;
20090;SDS011;10205;49.678;6.560;2022-09-03T15:38:45;1.63;;;1.00;;
20090;SDS011;10205;49.678;6.560;2022-09-03T15:41:23;1.20;;;0.95;;
20090;SDS011;10205;49.678;6.560;2022-09-03T15:44:04;2.03;;;1.17;;
20090;SDS011;10205;49.678;6.560;2022-09-03T15:46:52;1.92;;;0.93;;
20090;SDS011;10205;49.678;6.560;2022-09-03T15:49:26;2.20;;;1.13;;
20090;SDS011;10205;49.678;6.560;2022-09-03T15:52:20;0.90;;;0.90;;
20090;SDS011;10205;49.678;6.560;2022-09-03T15:55:01;1.92;;;1.00;;
20090;SDS011;10205;49.678;6.560;2022-09-03T15:57:39;1.20;;;0.90;;